sensor_id;sensor_type;location;lat;lon;timestamp;P1;durP1;ratioP1;P2;durP2;ratioP2
10132;SDS011;5106;50.926;7.080;2023-11-21T00:01:49;7.70;;;3.83;;
10132;SDS011;5106;50.926;7.080;2023-11-21T00:04:14;4.83;;;3.53;;
10132;SDS011;5106;50.926;7.080;2023-11-21T00:06:40;5.20;;;3.90;;
10132;SDS011;5106;50.926;7.080;2023-11-21T00:09:06;7.80;;;3.83;;
10132;SDS011;5106;50.926;7.080;2023-11-21T00:11:33;5.93;;;4.03;;
10132;SDS011;5106;50.926;7.080;2023-11-21T00:13:59;6.53;;;4.00;;
10132;SDS011;5106;50.926;7.080;2023-11-21T00:16:24;8.57;;;3.90;;
10132;SDS011;5106;50.926;7.080;2023-11-21T00:18:50;5.80;;;3.90;;
10132;SDS011;5106;50.926;7.080;2023-11-21T00:21:16;5.23;;;3.97;;
10132;SDS011;5106;50.926;7.080;2023-11-21T00:23:42;6.70;;;4.13;;
10132;SDS011;5106;50.926;7.080;2023-11-21T00:26:07;5.10;;;3.97;;
10132;SDS011;5106;50.926;7.080;2023-11-21T00:28:33;7.00;;;4.43;;
10132;SDS011;5106;50.926;7.080;2023-11-21T00:30:58;7.10;;;4.50;;
10132;SDS011;5106;50.926;7.080;2023-11-21T00:33:24;6.80;;;4.27;;
10132;SDS011;5106;50.926;7.080;2023-11-21T00:35:50;8.27;;;4.97;;
10132;SDS011;5106;50.926;7.080;2023-11-21T00:38:16;8.13;;;5.00;;
10132;SDS011;5106;50.926;7.080;2023-11-21T00:40:44;7.53;;;4.97;;
10132;SDS011;5106;50.926;7.080;2023-11-21T00:43:10;8.55;;;4.90;;
10132;SDS011;5106;50.926;7.080;2023-11-21T00:45:36;7.07;;;4.87;;
10132;SDS011;5106;50.926;7.080;2023-11-21T00:48:02;6.47;;;4.60;;
10132;SDS011;5106;50.926;7.080;2023-11-21T00:50:29;7.20;;;4.80;;
10132;SDS011;5106;50.926;7.080;2023-11-21T00:52:55;8.13;;;4.77;;
10132;SDS011;5106;50.926;7.080;2023-11-21T00:55:21;9.90;;;4.70;;
10132;SDS011;5106;50.926;7.080;2023-11-21T00:57:47;7.37;;;5.20;;
10132;SDS011;5106;50.926;7.080;2023-11-21T01:00:13;7.00;;;4.80;;
10132;SDS011;5106;50.926;7.080;2023-11-21T01:02:42;11.30;;;4.90;;
10132;SDS011;5106;50.926;7.080;2023-11-21T01:05:09;6.40;;;4.60;;
10132;SDS011;5106;50.926;7.080;2023-11-21T01:07:35;6.23;;;4.87;;
10132;SDS011;5106;50.926;7.080;2023-11-21T01:10:02;6.77;;;4.23;;
10132;SDS011;5106;50.926;7.080;2023-11-21T01:12:28;6.70;;;4.50;;
10132;SDS011;5106;50.926;7.080;2023-11-21T01:14:54;6.10;;;4.63;;
10132;SDS011;5106;50.926;7.080;2023-11-21T01:17:19;7.30;;;4.53;;
10132;SDS011;5106;50.926;7.080;2023-11-21T01:19:47;6.47;;;4.97;;
10132;SDS011;5106;50.926;7.080;2023-11-21T01:22:13;6.83;;;4.93;;
10132;SDS011;5106;50.926;7.080;2023-11-21T01:24:38;7.23;;;4.37;;
10132;SDS011;5106;50.926;7.080;2023-11-21T01:27:04;5.10;;;4.43;;
10132;SDS011;5106;50.926;7.080;2023-11-21T01:29:29;6.30;;;4.40;;
10132;SDS011;5106;50.926;7.080;2023-11-21T01:31:55;8.00;;;5.20;;
10132;SDS011;5106;50.926;7.080;2023-11-21T01:34:22;6.63;;;4.37;;
10132;SDS011;5106;50.926;7.080;2023-11-21T01:36:48;7.20;;;4.53;;
10132;SDS011;5106;50.926;7.080;2023-11-21T01:39:14;6.10;;;4.70;;
10132;SDS011;5106;50.926;7.080;2023-11-21T01:41:44;7.30;;;4.60;;
10132;SDS011;5106;50.926;7.080;2023-11-21T01:44:10;7.10;;;4.43;;
10132;SDS011;5106;50.926;7.080;2023-11-21T01:46:35;7.03;;;4.67;;
10132;SDS011;5106;50.926;7.080;2023-11-21T01:49:02;6.57;;;4.63;;
10132;SDS011;5106;50.926;7.080;2023-11-21T01:51:28;9.57;;;4.90;;
10132;SDS011;5106;50.926;7.080;2023-11-21T01:53:54;5.70;;;5.10;;
10132;SDS011;5106;50.926;7.080;2023-11-21T01:56:20;7.30;;;5.20;;
10132;SDS011;5106;50.926;7.080;2023-11-21T01:58:46;6.50;;;4.83;;
10132;SDS011;5106;50.926;7.080;2023-11-21T02:01:11;7.37;;;5.17;;
10132;SDS011;5106;50.926;7.080;2023-11-21T02:03:37;7.13;;;4.90;;
10132;SDS011;5106;50.926;7.080;2023-11-21T02:06:03;8.07;;;4.83;;
10132;SDS011;5106;50.926;7.080;2023-11-21T02:08:28;5.97;;;4.90;;
10132;SDS011;5106;50.926;7.080;2023-11-21T02:10:54;8.20;;;5.37;;
10132;SDS011;5106;50.926;7.080;2023-11-21T02:13:20;5.23;;;4.43;;
10132;SDS011;5106;50.926;7.080;2023-11-21T02:15:45;8.03;;;4.83;;
10132;SDS011;5106;50.926;7.080;2023-11-21T02:18:12;9.77;;;5.47;;
10132;SDS011;5106;50.926;7.080;2023-11-21T02:20:39;5.57;;;4.43;;
10132;SDS011;5106;50.926;7.080;2023-11-21T02:23:06;6.07;;;4.77;;
10132;SDS011;5106;50.926;7.080;2023-11-21T02:25:32;8.33;;;5.07;;
10132;SDS011;5106;50.926;7.080;2023-11-21T02:28:02;5.43;;;4.57;;
10132;SDS011;5106;50.926;7.080;2023-11-21T02:30:28;6.73;;;5.50;;
10132;SDS011;5106;50.926;7.080;2023-11-21T02:32:56;10.10;;;5.10;;
10132;SDS011;5106;50.926;7.080;2023-11-21T02:35:22;8.13;;;5.17;;
10132;SDS011;5106;50.926;7.080;2023-11-21T02:37:48;7.77;;;4.60;;
10132;SDS011;5106;50.926;7.080;2023-11-21T02:40:14;6.63;;;4.27;;
10132;SDS011;5106;50.926;7.080;2023-11-21T02:42:44;8.07;;;4.53;;
10132;SDS011;5106;50.926;7.080;2023-11-21T02:45:09;10.43;;;4.90;;
10132;SDS011;5106;50.926;7.080;2023-11-21T02:47:37;5.43;;;4.70;;
10132;SDS011;5106;50.926;7.080;2023-11-21T02:50:03;6.60;;;4.63;;
10132;SDS011;5106;50.926;7.080;2023-11-21T02:52:31;6.07;;;4.50;;
10132;SDS011;5106;50.926;7.080;2023-11-21T02:54:58;6.33;;;4.40;;
10132;SDS011;5106;50.926;7.080;2023-11-21T02:57:24;7.10;;;4.70;;
10132;SDS011;5106;50.926;7.080;2023-11-21T02:59:49;9.27;;;4.97;;
10132;SDS011;5106;50.926;7.080;2023-11-21T03:02:15;7.07;;;5.00;;
10132;SDS011;5106;50.926;7.080;2023-11-21T03:04:41;7.27;;;5.40;;
10132;SDS011;5106;50.926;7.080;2023-11-21T03:07:07;9.63;;;4.63;;
10132;SDS011;5106;50.926;7.080;2023-11-21T03:09:34;6.90;;;5.50;;
10132;SDS011;5106;50.926;7.080;2023-11-21T03:12:00;6.23;;;5.07;;
10132;SDS011;5106;50.926;7.080;2023-11-21T03:14:25;6.87;;;5.13;;
10132;SDS011;5106;50.926;7.080;2023-11-21T03:16:51;8.07;;;6.23;;
10132;SDS011;5106;50.926;7.080;2023-11-21T03:19:16;10.60;;;6.10;;
10132;SDS011;5106;50.926;7.080;2023-11-21T03:21:42;8.47;;;6.27;;
10132;SDS011;5106;50.926;7.080;2023-11-21T03:24:08;9.63;;;6.17;;
10132;SDS011;5106;50.926;7.080;2023-11-21T03:26:33;9.70;;;5.80;;
10132;SDS011;5106;50.926;7.080;2023-11-21T03:28:59;9.63;;;6.10;;
10132;SDS011;5106;50.926;7.080;2023-11-21T03:31:24;8.07;;;5.57;;
10132;SDS011;5106;50.926;7.080;2023-11-21T03:33:51;7.40;;;5.97;;
10132;SDS011;5106;50.926;7.080;2023-11-21T03:36:18;9.47;;;6.13;;
10132;SDS011;5106;50.926;7.080;2023-11-21T03:38:44;8.77;;;6.00;;
10132;SDS011;5106;50.926;7.080;2023-11-21T03:41:10;7.00;;;5.77;;
10132;SDS011;5106;50.926;7.080;2023-11-21T03:43:36;10.37;;;6.00;;
10132;SDS011;5106;50.926;7.080;2023-11-21T03:46:02;9.33;;;6.60;;
10132;SDS011;5106;50.926;7.080;2023-11-21T03:48:28;7.27;;;6.07;;
10132;SDS011;5106;50.926;7.080;2023-11-21T03:50:54;8.27;;;6.37;;
10132;SDS011;5106;50.926;7.080;2023-11-21T03:53:19;7.57;;;5.97;;
10132;SDS011;5106;50.926;7.080;2023-11-21T03:55:45;9.40;;;6.63;;
10132;SDS011;5106;50.926;7.080;2023-11-21T03:58:10;9.63;;;7.37;;
10132;SDS011;5106;50.926;7.080;2023-11-21T04:00:36;9.27;;;6.50;;
10132;SDS011;5106;50.926;7.080;2023-11-21T04:03:02;8.83;;;6.77;;
10132;SDS011;5106;50.926;7.080;2023-11-21T04:05:28;8.47;;;6.73;;
10132;SDS011;5106;50.926;7.080;2023-11-21T04:07:53;9.57;;;7.00;;
10132;SDS011;5106;50.926;7.080;2023-11-21T04:10:19;9.07;;;6.80;;
10132;SDS011;5106;50.926;7.080;2023-11-21T04:12:45;12.87;;;7.47;;
10132;SDS011;5106;50.926;7.080;2023-11-21T04:15:11;10.27;;;7.10;;
10132;SDS011;5106;50.926;7.080;2023-11-21T04:17:38;10.70;;;6.70;;
10132;SDS011;5106;50.926;7.080;2023-11-21T04:20:04;9.00;;;6.57;;
10132;SDS011;5106;50.926;7.080;2023-11-21T04:22:33;10.43;;;6.90;;
10132;SDS011;5106;50.926;7.080;2023-11-21T04:25:11;10.93;;;7.53;;
10132;SDS011;5106;50.926;7.080;2023-11-21T04:27:39;9.03;;;6.90;;
10132;SDS011;5106;50.926;7.080;2023-11-21T04:30:05;10.47;;;7.27;;
10132;SDS011;5106;50.926;7.080;2023-11-21T04:32:31;11.30;;;6.83;;
10132;SDS011;5106;50.926;7.080;2023-11-21T04:34:57;8.43;;;6.63;;
10132;SDS011;5106;50.926;7.080;2023-11-21T04:37:23;9.70;;;7.13;;
10132;SDS011;5106;50.926;7.080;2023-11-21T04:39:49;11.73;;;6.93;;
10132;SDS011;5106;50.926;7.080;2023-11-21T04:42:15;10.73;;;6.87;;
10132;SDS011;5106;50.926;7.080;2023-11-21T04:44:40;10.50;;;6.37;;
10132;SDS011;5106;50.926;7.080;2023-11-21T04:47:06;8.33;;;6.73;;
10132;SDS011;5106;50.926;7.080;2023-11-21T04:49:32;9.07;;;6.67;;
10132;SDS011;5106;50.926;7.080;2023-11-21T04:51:58;9.57;;;6.97;;
10132;SDS011;5106;50.926;7.080;2023-11-21T04:54:24;11.87;;;6.77;;
10132;SDS011;5106;50.926;7.080;2023-11-21T04:56:49;7.93;;;6.60;;
10132;SDS011;5106;50.926;7.080;2023-11-21T04:59:15;10.60;;;7.20;;
10132;SDS011;5106;50.926;7.080;2023-11-21T05:01:41;13.63;;;7.70;;
10132;SDS011;5106;50.926;7.080;2023-11-21T05:04:06;9.43;;;7.27;;
10132;SDS011;5106;50.926;7.080;2023-11-21T05:06:33;10.43;;;7.53;;
10132;SDS011;5106;50.926;7.080;2023-11-21T05:08:59;9.63;;;7.43;;
10132;SDS011;5106;50.926;7.080;2023-11-21T05:11:25;9.80;;;7.50;;
10132;SDS011;5106;50.926;7.080;2023-11-21T05:13:51;11.10;;;7.97;;
10132;SDS011;5106;50.926;7.080;2023-11-21T05:16:18;12.30;;;7.50;;
10132;SDS011;5106;50.926;7.080;2023-11-21T05:18:44;12.03;;;8.17;;
10132;SDS011;5106;50.926;7.080;2023-11-21T05:21:10;11.60;;;7.47;;
10132;SDS011;5106;50.926;7.080;2023-11-21T05:23:36;12.17;;;7.97;;
10132;SDS011;5106;50.926;7.080;2023-11-21T05:26:02;12.37;;;7.67;;
10132;SDS011;5106;50.926;7.080;2023-11-21T05:28:28;11.97;;;8.00;;
10132;SDS011;5106;50.926;7.080;2023-11-21T05:30:54;9.57;;;7.27;;
10132;SDS011;5106;50.926;7.080;2023-11-21T05:33:19;12.43;;;7.83;;
10132;SDS011;5106;50.926;7.080;2023-11-21T05:35:45;10.00;;;7.47;;
10132;SDS011;5106;50.926;7.080;2023-11-21T05:38:13;10.97;;;8.07;;
10132;SDS011;5106;50.926;7.080;2023-11-21T05:40:39;10.87;;;7.83;;
10132;SDS011;5106;50.926;7.080;2023-11-21T05:43:04;13.17;;;8.00;;
10132;SDS011;5106;50.926;7.080;2023-11-21T05:45:30;12.43;;;7.63;;
10132;SDS011;5106;50.926;7.080;2023-11-21T05:47:56;11.70;;;8.53;;
10132;SDS011;5106;50.926;7.080;2023-11-21T05:50:22;14.83;;;7.90;;
10132;SDS011;5106;50.926;7.080;2023-11-21T05:52:48;14.70;;;9.23;;
10132;SDS011;5106;50.926;7.080;2023-11-21T05:55:14;12.10;;;8.77;;
10132;SDS011;5106;50.926;7.080;2023-11-21T05:57:40;10.50;;;8.40;;
10132;SDS011;5106;50.926;7.080;2023-11-21T06:00:08;13.43;;;9.17;;
10132;SDS011;5106;50.926;7.080;2023-11-21T06:02:43;13.80;;;9.07;;
10132;SDS011;5106;50.926;7.080;2023-11-21T06:05:10;13.30;;;9.13;;
10132;SDS011;5106;50.926;7.080;2023-11-21T06:07:36;13.23;;;8.60;;
10132;SDS011;5106;50.926;7.080;2023-11-21T06:10:03;12.47;;;8.60;;
10132;SDS011;5106;50.926;7.080;2023-11-21T06:12:31;13.30;;;8.67;;
10132;SDS011;5106;50.926;7.080;2023-11-21T06:15:01;12.27;;;8.87;;
10132;SDS011;5106;50.926;7.080;2023-11-21T06:17:29;16.40;;;10.00;;
10132;SDS011;5106;50.926;7.080;2023-11-21T06:19:55;13.30;;;9.00;;
10132;SDS011;5106;50.926;7.080;2023-11-21T06:22:21;13.53;;;8.80;;
10132;SDS011;5106;50.926;7.080;2023-11-21T06:24:46;10.77;;;8.03;;
10132;SDS011;5106;50.926;7.080;2023-11-21T06:27:12;12.00;;;8.33;;
10132;SDS011;5106;50.926;7.080;2023-11-21T06:29:38;10.43;;;7.90;;
10132;SDS011;5106;50.926;7.080;2023-11-21T06:32:04;14.57;;;8.40;;
10132;SDS011;5106;50.926;7.080;2023-11-21T06:34:30;15.00;;;8.17;;
10132;SDS011;5106;50.926;7.080;2023-11-21T06:36:56;13.10;;;8.23;;
10132;SDS011;5106;50.926;7.080;2023-11-21T06:39:21;13.07;;;8.40;;
10132;SDS011;5106;50.926;7.080;2023-11-21T06:41:52;15.83;;;8.80;;
10132;SDS011;5106;50.926;7.080;2023-11-21T06:44:17;13.60;;;8.50;;
10132;SDS011;5106;50.926;7.080;2023-11-21T06:46:44;11.87;;;7.43;;
10132;SDS011;5106;50.926;7.080;2023-11-21T06:49:10;14.03;;;8.90;;
10132;SDS011;5106;50.926;7.080;2023-11-21T06:51:36;13.40;;;8.43;;
10132;SDS011;5106;50.926;7.080;2023-11-21T06:54:02;13.03;;;8.07;;
10132;SDS011;5106;50.926;7.080;2023-11-21T06:56:27;14.10;;;8.50;;
10132;SDS011;5106;50.926;7.080;2023-11-21T06:58:53;14.47;;;8.03;;
10132;SDS011;5106;50.926;7.080;2023-11-21T07:01:19;13.43;;;7.80;;
10132;SDS011;5106;50.926;7.080;2023-11-21T07:03:45;12.83;;;7.70;;
10132;SDS011;5106;50.926;7.080;2023-11-21T07:06:11;12.10;;;7.53;;
10132;SDS011;5106;50.926;7.080;2023-11-21T07:08:36;12.67;;;7.87;;
10132;SDS011;5106;50.926;7.080;2023-11-21T07:11:03;12.30;;;8.77;;
10132;SDS011;5106;50.926;7.080;2023-11-21T07:13:29;13.40;;;8.20;;
10132;SDS011;5106;50.926;7.080;2023-11-21T07:15:55;10.93;;;7.43;;
10132;SDS011;5106;50.926;7.080;2023-11-21T07:18:22;12.23;;;7.63;;
10132;SDS011;5106;50.926;7.080;2023-11-21T07:20:48;10.67;;;7.23;;
10132;SDS011;5106;50.926;7.080;2023-11-21T07:23:14;15.63;;;8.77;;
10132;SDS011;5106;50.926;7.080;2023-11-21T07:25:40;11.80;;;7.57;;
10132;SDS011;5106;50.926;7.080;2023-11-21T07:28:08;15.17;;;9.03;;
10132;SDS011;5106;50.926;7.080;2023-11-21T07:30:33;13.80;;;9.13;;
10132;SDS011;5106;50.926;7.080;2023-11-21T07:32:59;15.83;;;10.00;;
10132;SDS011;5106;50.926;7.080;2023-11-21T07:35:24;20.83;;;10.27;;
10132;SDS011;5106;50.926;7.080;2023-11-21T07:37:50;17.23;;;9.93;;
10132;SDS011;5106;50.926;7.080;2023-11-21T07:40:16;15.03;;;9.80;;
10132;SDS011;5106;50.926;7.080;2023-11-21T07:42:42;12.70;;;8.97;;
10132;SDS011;5106;50.926;7.080;2023-11-21T07:45:07;16.40;;;9.67;;
10132;SDS011;5106;50.926;7.080;2023-11-21T07:47:33;19.77;;;10.33;;
10132;SDS011;5106;50.926;7.080;2023-11-21T07:49:59;16.17;;;9.80;;
10132;SDS011;5106;50.926;7.080;2023-11-21T07:52:27;12.07;;;9.00;;
10132;SDS011;5106;50.926;7.080;2023-11-21T07:54:53;19.63;;;10.33;;
10132;SDS011;5106;50.926;7.080;2023-11-21T07:57:19;16.03;;;9.50;;
10132;SDS011;5106;50.926;7.080;2023-11-21T07:59:44;19.60;;;10.10;;
10132;SDS011;5106;50.926;7.080;2023-11-21T08:02:10;18.07;;;10.50;;
10132;SDS011;5106;50.926;7.080;2023-11-21T08:04:35;17.77;;;10.07;;
10132;SDS011;5106;50.926;7.080;2023-11-21T08:07:01;16.43;;;10.23;;
10132;SDS011;5106;50.926;7.080;2023-11-21T08:09:27;21.50;;;10.80;;
10132;SDS011;5106;50.926;7.080;2023-11-21T08:11:52;20.30;;;10.53;;
10132;SDS011;5106;50.926;7.080;2023-11-21T08:14:18;19.20;;;10.67;;
10132;SDS011;5106;50.926;7.080;2023-11-21T08:16:45;21.53;;;11.17;;
10132;SDS011;5106;50.926;7.080;2023-11-21T08:19:10;24.80;;;12.47;;
10132;SDS011;5106;50.926;7.080;2023-11-21T08:21:36;20.80;;;10.93;;
10132;SDS011;5106;50.926;7.080;2023-11-21T08:24:08;23.23;;;12.33;;
10132;SDS011;5106;50.926;7.080;2023-11-21T08:26:35;19.07;;;12.20;;
10132;SDS011;5106;50.926;7.080;2023-11-21T08:29:01;18.33;;;11.23;;
10132;SDS011;5106;50.926;7.080;2023-11-21T08:31:27;26.17;;;12.47;;
10132;SDS011;5106;50.926;7.080;2023-11-21T08:33:53;21.70;;;12.07;;
10132;SDS011;5106;50.926;7.080;2023-11-21T08:36:20;19.67;;;11.90;;
10132;SDS011;5106;50.926;7.080;2023-11-21T08:38:47;21.63;;;12.67;;
10132;SDS011;5106;50.926;7.080;2023-11-21T08:41:14;19.70;;;12.10;;
10132;SDS011;5106;50.926;7.080;2023-11-21T08:43:40;26.00;;;12.87;;
10132;SDS011;5106;50.926;7.080;2023-11-21T08:46:06;19.73;;;12.30;;
10132;SDS011;5106;50.926;7.080;2023-11-21T08:48:33;23.93;;;12.80;;
10132;SDS011;5106;50.926;7.080;2023-11-21T08:51:01;22.73;;;13.33;;
10132;SDS011;5106;50.926;7.080;2023-11-21T08:53:26;20.30;;;13.17;;
10132;SDS011;5106;50.926;7.080;2023-11-21T08:55:52;23.23;;;13.90;;
10132;SDS011;5106;50.926;7.080;2023-11-21T08:58:18;24.30;;;13.63;;
10132;SDS011;5106;50.926;7.080;2023-11-21T09:00:44;25.53;;;14.13;;
10132;SDS011;5106;50.926;7.080;2023-11-21T09:03:11;24.47;;;14.80;;
10132;SDS011;5106;50.926;7.080;2023-11-21T09:05:38;26.47;;;15.87;;
10132;SDS011;5106;50.926;7.080;2023-11-21T09:08:04;28.93;;;15.70;;
10132;SDS011;5106;50.926;7.080;2023-11-21T09:10:30;25.77;;;15.23;;
10132;SDS011;5106;50.926;7.080;2023-11-21T09:12:57;26.03;;;15.03;;
10132;SDS011;5106;50.926;7.080;2023-11-21T09:15:24;24.93;;;15.37;;
10132;SDS011;5106;50.926;7.080;2023-11-21T09:17:50;27.60;;;15.07;;
10132;SDS011;5106;50.926;7.080;2023-11-21T09:20:15;23.80;;;15.30;;
10132;SDS011;5106;50.926;7.080;2023-11-21T09:22:41;25.73;;;15.80;;
10132;SDS011;5106;50.926;7.080;2023-11-21T09:25:07;28.23;;;16.13;;
10132;SDS011;5106;50.926;7.080;2023-11-21T09:27:33;24.77;;;15.40;;
10132;SDS011;5106;50.926;7.080;2023-11-21T09:30:00;26.37;;;16.07;;
10132;SDS011;5106;50.926;7.080;2023-11-21T09:32:26;26.37;;;16.30;;
10132;SDS011;5106;50.926;7.080;2023-11-21T09:34:52;30.87;;;17.20;;
10132;SDS011;5106;50.926;7.080;2023-11-21T09:37:20;31.73;;;17.17;;
10132;SDS011;5106;50.926;7.080;2023-11-21T09:39:46;29.97;;;17.27;;
10132;SDS011;5106;50.926;7.080;2023-11-21T09:42:17;26.90;;;16.05;;
10132;SDS011;5106;50.926;7.080;2023-11-21T09:45:03;27.73;;;17.15;;
10132;SDS011;5106;50.926;7.080;2023-11-21T09:47:53;29.67;;;17.98;;
10132;SDS011;5106;50.926;7.080;2023-11-21T09:50:22;30.80;;;18.63;;
10132;SDS011;5106;50.926;7.080;2023-11-21T09:53:03;32.83;;;20.25;;
10132;SDS011;5106;50.926;7.080;2023-11-21T09:55:43;31.10;;;19.42;;
10132;SDS011;5106;50.926;7.080;2023-11-21T09:58:10;34.35;;;19.83;;
10132;SDS011;5106;50.926;7.080;2023-11-21T10:00:43;31.70;;;18.37;;
10132;SDS011;5106;50.926;7.080;2023-11-21T10:03:10;32.43;;;18.97;;
10132;SDS011;5106;50.926;7.080;2023-11-21T10:05:36;32.23;;;20.03;;
10132;SDS011;5106;50.926;7.080;2023-11-21T10:08:09;35.80;;;19.47;;
10132;SDS011;5106;50.926;7.080;2023-11-21T10:10:36;34.13;;;19.67;;
10132;SDS011;5106;50.926;7.080;2023-11-21T10:13:04;36.53;;;19.13;;
10132;SDS011;5106;50.926;7.080;2023-11-21T10:15:33;30.10;;;19.27;;
10132;SDS011;5106;50.926;7.080;2023-11-21T10:18:00;37.10;;;20.57;;
10132;SDS011;5106;50.926;7.080;2023-11-21T10:20:28;37.60;;;21.10;;
10132;SDS011;5106;50.926;7.080;2023-11-21T10:22:54;38.40;;;22.07;;
10132;SDS011;5106;50.926;7.080;2023-11-21T10:25:21;33.23;;;20.00;;
10132;SDS011;5106;50.926;7.080;2023-11-21T10:28:00;33.90;;;19.67;;
10132;SDS011;5106;50.926;7.080;2023-11-21T10:30:37;37.80;;;19.30;;
10132;SDS011;5106;50.926;7.080;2023-11-21T10:33:07;35.27;;;19.80;;
10132;SDS011;5106;50.926;7.080;2023-11-21T10:38:16;37.27;;;18.97;;
10132;SDS011;5106;50.926;7.080;2023-11-21T10:40:42;32.30;;;19.33;;
10132;SDS011;5106;50.926;7.080;2023-11-21T10:43:09;33.13;;;19.00;;
10132;SDS011;5106;50.926;7.080;2023-11-21T10:45:39;37.30;;;20.80;;
10132;SDS011;5106;50.926;7.080;2023-11-21T10:48:23;34.10;;;20.40;;
10132;SDS011;5106;50.926;7.080;2023-11-21T10:50:48;35.47;;;21.17;;
10132;SDS011;5106;50.926;7.080;2023-11-21T10:53:14;37.43;;;21.80;;
10132;SDS011;5106;50.926;7.080;2023-11-21T10:55:40;36.03;;;21.10;;
10132;SDS011;5106;50.926;7.080;2023-11-21T10:58:06;37.33;;;23.10;;
10132;SDS011;5106;50.926;7.080;2023-11-21T11:00:33;37.93;;;21.77;;
10132;SDS011;5106;50.926;7.080;2023-11-21T11:02:59;41.03;;;22.30;;
10132;SDS011;5106;50.926;7.080;2023-11-21T11:05:26;38.55;;;22.00;;
10132;SDS011;5106;50.926;7.080;2023-11-21T11:08:04;37.37;;;21.27;;
10132;SDS011;5106;50.926;7.080;2023-11-21T11:10:31;37.00;;;21.30;;
10132;SDS011;5106;50.926;7.080;2023-11-21T11:12:57;42.90;;;23.90;;
10132;SDS011;5106;50.926;7.080;2023-11-21T11:15:24;40.20;;;24.10;;
10132;SDS011;5106;50.926;7.080;2023-11-21T11:17:50;36.47;;;24.17;;
10132;SDS011;5106;50.926;7.080;2023-11-21T11:20:16;38.63;;;23.05;;
10132;SDS011;5106;50.926;7.080;2023-11-21T11:28:07;45.53;;;26.37;;
10132;SDS011;5106;50.926;7.080;2023-11-21T11:36:48;45.97;;;26.48;;
10132;SDS011;5106;50.926;7.080;2023-11-21T11:39:37;46.38;;;25.13;;
10132;SDS011;5106;50.926;7.080;2023-11-21T11:42:08;46.08;;;25.52;;
10132;SDS011;5106;50.926;7.080;2023-11-21T11:47:25;41.20;;;25.20;;
10132;SDS011;5106;50.926;7.080;2023-11-21T11:55:05;41.07;;;23.43;;
10132;SDS011;5106;50.926;7.080;2023-11-21T11:57:39;36.20;;;22.20;;
10132;SDS011;5106;50.926;7.080;2023-11-21T12:02:56;35.87;;;20.70;;
10132;SDS011;5106;50.926;7.080;2023-11-21T12:05:31;38.50;;;21.88;;
10132;SDS011;5106;50.926;7.080;2023-11-21T12:08:10;37.75;;;21.50;;
10132;SDS011;5106;50.926;7.080;2023-11-21T12:10:37;36.47;;;19.75;;
10132;SDS011;5106;50.926;7.080;2023-11-21T12:13:07;33.42;;;19.30;;
10132;SDS011;5106;50.926;7.080;2023-11-21T12:15:35;37.70;;;20.37;;
10132;SDS011;5106;50.926;7.080;2023-11-21T12:18:02;36.53;;;20.27;;
10132;SDS011;5106;50.926;7.080;2023-11-21T12:20:28;36.25;;;20.15;;
10132;SDS011;5106;50.926;7.080;2023-11-21T12:22:56;31.88;;;19.50;;
10132;SDS011;5106;50.926;7.080;2023-11-21T12:25:25;36.95;;;19.92;;
10132;SDS011;5106;50.926;7.080;2023-11-21T12:27:54;32.17;;;18.97;;
10132;SDS011;5106;50.926;7.080;2023-11-21T12:30:24;32.42;;;19.05;;
10132;SDS011;5106;50.926;7.080;2023-11-21T12:32:54;31.17;;;17.80;;
10132;SDS011;5106;50.926;7.080;2023-11-21T12:35:21;33.28;;;18.48;;
10132;SDS011;5106;50.926;7.080;2023-11-21T12:37:49;30.50;;;18.58;;
10132;SDS011;5106;50.926;7.080;2023-11-21T12:40:17;32.60;;;19.05;;
10132;SDS011;5106;50.926;7.080;2023-11-21T12:42:43;33.45;;;19.10;;
10132;SDS011;5106;50.926;7.080;2023-11-21T12:45:22;31.20;;;17.77;;
10132;SDS011;5106;50.926;7.080;2023-11-21T12:47:56;31.27;;;18.42;;
10132;SDS011;5106;50.926;7.080;2023-11-21T12:50:25;33.20;;;18.40;;
10132;SDS011;5106;50.926;7.080;2023-11-21T12:52:54;34.65;;;18.38;;
10132;SDS011;5106;50.926;7.080;2023-11-21T12:55:23;33.83;;;18.73;;
10132;SDS011;5106;50.926;7.080;2023-11-21T12:57:54;33.22;;;18.25;;
10132;SDS011;5106;50.926;7.080;2023-11-21T13:00:27;29.65;;;17.85;;
10132;SDS011;5106;50.926;7.080;2023-11-21T13:02:59;29.27;;;18.10;;
10132;SDS011;5106;50.926;7.080;2023-11-21T13:05:28;32.33;;;17.23;;
10132;SDS011;5106;50.926;7.080;2023-11-21T13:07:58;26.58;;;17.50;;
10132;SDS011;5106;50.926;7.080;2023-11-21T13:10:27;29.48;;;16.30;;
10132;SDS011;5106;50.926;7.080;2023-11-21T13:12:56;30.25;;;17.58;;
10132;SDS011;5106;50.926;7.080;2023-11-21T13:15:28;31.73;;;16.73;;
10132;SDS011;5106;50.926;7.080;2023-11-21T13:17:56;29.80;;;17.67;;
10132;SDS011;5106;50.926;7.080;2023-11-21T13:20:22;31.70;;;16.92;;
10132;SDS011;5106;50.926;7.080;2023-11-21T13:22:50;32.40;;;16.63;;
10132;SDS011;5106;50.926;7.080;2023-11-21T13:25:22;29.17;;;16.77;;
10132;SDS011;5106;50.926;7.080;2023-11-21T13:27:49;28.40;;;17.17;;
10132;SDS011;5106;50.926;7.080;2023-11-21T13:30:15;27.95;;;16.75;;
10132;SDS011;5106;50.926;7.080;2023-11-21T13:32:42;32.63;;;16.83;;
10132;SDS011;5106;50.926;7.080;2023-11-21T13:35:09;31.92;;;17.92;;
10132;SDS011;5106;50.926;7.080;2023-11-21T13:37:44;34.42;;;17.58;;
10132;SDS011;5106;50.926;7.080;2023-11-21T13:40:10;29.02;;;17.00;;
10132;SDS011;5106;50.926;7.080;2023-11-21T13:42:40;33.55;;;17.33;;
10132;SDS011;5106;50.926;7.080;2023-11-21T13:45:06;30.88;;;17.15;;
10132;SDS011;5106;50.926;7.080;2023-11-21T13:47:32;29.23;;;16.93;;
10132;SDS011;5106;50.926;7.080;2023-11-21T13:49:59;28.15;;;15.68;;
10132;SDS011;5106;50.926;7.080;2023-11-21T13:52:25;28.48;;;15.65;;
10132;SDS011;5106;50.926;7.080;2023-11-21T13:54:52;28.83;;;15.50;;
10132;SDS011;5106;50.926;7.080;2023-11-21T13:57:18;32.03;;;15.07;;
10132;SDS011;5106;50.926;7.080;2023-11-21T13:59:45;25.95;;;14.57;;
10132;SDS011;5106;50.926;7.080;2023-11-21T14:02:11;26.50;;;14.27;;
10132;SDS011;5106;50.926;7.080;2023-11-21T14:04:43;30.33;;;14.88;;
10132;SDS011;5106;50.926;7.080;2023-11-21T14:07:20;27.88;;;14.13;;
10132;SDS011;5106;50.926;7.080;2023-11-21T14:10:00;28.00;;;15.27;;
10132;SDS011;5106;50.926;7.080;2023-11-21T14:12:26;27.60;;;15.38;;
10132;SDS011;5106;50.926;7.080;2023-11-21T14:14:53;26.38;;;14.20;;
10132;SDS011;5106;50.926;7.080;2023-11-21T14:17:20;25.92;;;14.88;;
10132;SDS011;5106;50.926;7.080;2023-11-21T14:19:47;27.83;;;15.27;;
10132;SDS011;5106;50.926;7.080;2023-11-21T14:22:14;27.80;;;15.23;;
10132;SDS011;5106;50.926;7.080;2023-11-21T14:24:40;25.52;;;14.95;;
10132;SDS011;5106;50.926;7.080;2023-11-21T14:27:12;29.15;;;14.50;;
10132;SDS011;5106;50.926;7.080;2023-11-21T14:29:38;30.80;;;15.27;;
10132;SDS011;5106;50.926;7.080;2023-11-21T14:32:08;29.63;;;15.40;;
10132;SDS011;5106;50.926;7.080;2023-11-21T14:34:34;27.15;;;15.85;;
10132;SDS011;5106;50.926;7.080;2023-11-21T14:36:59;25.40;;;15.20;;
10132;SDS011;5106;50.926;7.080;2023-11-21T14:39:27;27.40;;;15.52;;
10132;SDS011;5106;50.926;7.080;2023-11-21T14:41:54;29.25;;;15.10;;
10132;SDS011;5106;50.926;7.080;2023-11-21T14:44:24;30.77;;;15.20;;
10132;SDS011;5106;50.926;7.080;2023-11-21T14:46:53;26.75;;;14.68;;
10132;SDS011;5106;50.926;7.080;2023-11-21T14:49:20;27.05;;;15.38;;
10132;SDS011;5106;50.926;7.080;2023-11-21T14:51:50;28.88;;;14.63;;
10132;SDS011;5106;50.926;7.080;2023-11-21T14:54:27;28.05;;;15.40;;
10132;SDS011;5106;50.926;7.080;2023-11-21T14:57:06;29.85;;;15.38;;
10132;SDS011;5106;50.926;7.080;2023-11-21T14:59:43;28.98;;;15.68;;
10132;SDS011;5106;50.926;7.080;2023-11-21T15:02:15;28.10;;;14.05;;
10132;SDS011;5106;50.926;7.080;2023-11-21T15:04:43;30.80;;;15.47;;
10132;SDS011;5106;50.926;7.080;2023-11-21T15:07:09;27.85;;;15.75;;
10132;SDS011;5106;50.926;7.080;2023-11-21T15:09:38;33.75;;;17.23;;
10132;SDS011;5106;50.926;7.080;2023-11-21T15:12:07;31.38;;;16.73;;